Time;durP1;ratioP1;P1;durP2;ratioP2;P2;SDS_P1;SDS_P2;PMS_P1;PMS_P2;Temp;Humidity;BMP_temperature;BMP_pressure;BME280_temperature;BME280_humidity;BME280_pressure;Samples;Min_cycle;Max_cycle;Signal;HPM_P1;HPM_P2
2022/05/13 00:02:12;;;;;;;;;1.75;1.00;;;;;22.98;34.18;101696.06;5056758;28;45994;-58
2022/05/13 00:04:39;;;;;;;;;2.00;2.00;;;;;22.97;33.85;101702.28;5056908;28;45255;-58
2022/05/13 00:07:05;;;;;;;;;1.00;1.00;;;;;22.97;33.86;101694.34;5056962;28;45367;-56
2022/05/13 00:12:15;;;;;;;;;2.00;2.00;;;;;22.95;33.94;101693.56;5056603;28;45484;-59
2022/05/13 00:14:42;;;;;;;;;1.25;1.25;;;;;22.94;33.67;101697.16;5056673;28;45407;-58
2022/05/13 00:17:08;;;;;;;;;1.50;1.00;;;;;22.93;33.81;101695.44;5057041;28;45419;-59
2022/05/13 00:19:34;;;;;;;;;1.00;0.75;;;;;22.91;33.43;101695.53;5072484;28;45340;-58
2022/05/13 00:22:00;;;;;;;;;0.75;0.25;;;;;22.92;33.50;101705.16;5055028;28;47026;-58
2022/05/13 00:24:26;;;;;;;;;0.50;0.50;;;;;22.90;33.49;101698.22;5056546;28;45225;-58
2022/05/13 00:26:51;;;;;;;;;0.00;0.00;;;;;22.92;33.42;101701.66;5056629;28;45303;-57
2022/05/13 00:29:17;;;;;;;;;1.00;1.00;;;;;22.91;33.66;101702.59;5056680;28;45302;-59
2022/05/13 00:31:42;;;;;;;;;1.75;1.00;;;;;22.90;33.36;101696.47;5056551;28;46601;-58
2022/05/13 00:34:09;;;;;;;;;0.00;0.00;;;;;22.91;33.59;101702.59;5056605;28;45251;-58
2022/05/13 00:36:35;;;;;;;;;1.00;1.00;;;;;22.85;33.38;101691.41;5056575;28;45468;-58
2022/05/13 00:39:04;;;;;;;;;1.00;1.00;;;;;22.87;33.32;101693.13;5055308;28;45436;-58
2022/05/13 00:41:30;;;;;;;;;1.00;1.00;;;;;22.86;33.30;101694.91;5056060;28;46086;-58
2022/05/13 00:43:56;;;;;;;;;2.00;1.00;;;;;22.85;33.29;101690.53;5056190;28;45317;-58
2022/05/13 00:46:23;;;;;;;;;2.00;0.00;;;;;22.82;32.95;101688.94;5056324;28;45444;-56
2022/05/13 00:48:49;;;;;;;;;1.00;1.00;;;;;22.80;33.17;101685.50;5056573;28;45572;-58
2022/05/13 00:51:19;;;;;;;;;1.00;1.00;;;;;22.79;33.16;101689.06;5056137;28;45475;-58
2022/05/13 00:53:46;;;;;;;;;1.00;1.00;;;;;22.79;32.98;101682.94;5056074;28;45747;-58
2022/05/13 00:56:12;;;;;;;;;1.25;1.00;;;;;22.78;32.93;101682.06;5055396;28;45427;-58
2022/05/13 00:58:40;;;;;;;;;0.50;0.00;;;;;22.78;33.29;101689.16;5056494;28;45546;-58
2022/05/13 01:01:06;;;;;;;;;0.00;0.00;;;;;22.77;33.27;101696.22;5055325;28;45303;-56
2022/05/13 01:03:33;;;;;;;;;2.50;1.00;;;;;22.77;32.92;101687.44;5056234;28;45307;-59
2022/05/13 01:06:03;;;;;;;;;0.25;0.25;;;;;22.77;33.13;101690.94;5058688;28;45366;-58
2022/05/13 01:08:33;;;;;;;;;0.00;0.00;;;;;22.78;32.81;101697.09;5059951;28;45414;-58
2022/05/13 01:11:02;;;;;;;;;0.00;0.00;;;;;22.76;32.98;101705.13;5059418;28;45685;-58
2022/05/13 01:13:30;;;;;;;;;0.00;0.00;;;;;22.76;33.10;101698.94;5059271;28;45246;-58
2022/05/13 01:15:55;;;;;;;;;2.50;1.00;;;;;22.76;32.91;101707.75;5059316;28;45335;-56
2022/05/13 01:18:34;;;;;;;;;2.50;0.75;;;;;22.76;32.63;101689.25;5059634;28;45415;-56
2022/05/13 01:21:00;;;;;;;;;1.25;0.25;;;;;22.75;33.01;101692.81;5059202;28;46337;-58
2022/05/13 01:23:30;;;;;;;;;0.00;0.00;;;;;22.74;32.79;101693.75;5059256;28;45732;-58
2022/05/13 01:26:14;;;;;;;;;0.25;0.25;;;;;22.74;32.73;101704.34;5059536;28;45328;-57
2022/05/13 01:28:49;;;;;;;;;1.00;1.00;;;;;22.74;32.86;101706.09;5059692;28;45407;-58
2022/05/13 01:31:25;;;;;;;;;0.50;0.50;;;;;22.74;32.57;101701.69;5059543;28;47035;-58
2022/05/13 01:33:52;;;;;;;;;1.00;1.00;;;;;22.73;32.67;101705.25;5059101;28;45301;-56
2022/05/13 01:36:18;;;;;;;;;2.50;1.25;;;;;22.73;32.39;101712.31;5059236;28;45349;-58
2022/05/13 01:38:44;;;;;;;;;0.75;0.75;;;;;22.72;32.69;101713.25;5059685;28;45382;-58
2022/05/13 01:41:12;;;;;;;;;1.00;1.00;;;;;22.71;32.63;101715.03;5057702;28;45389;-58
2022/05/13 01:43:40;;;;;;;;;1.50;1.00;;;;;22.71;32.76;101715.03;5059001;28;45720;-58
2022/05/13 01:46:06;;;;;;;;;2.00;0.75;;;;;22.70;32.63;101716.84;5059182;28;45364;-58
2022/05/13 01:48:31;;;;;;;;;1.00;1.00;;;;;22.70;32.59;101705.41;5059398;28;45351;-58
2022/05/13 01:50:57;;;;;;;;;1.75;1.00;;;;;22.71;32.68;101701.84;5058659;28;45375;-58
2022/05/13 01:53:23;;;;;;;;;1.00;0.25;;;;;22.70;32.54;101710.69;5058923;28;45248;-57
2022/05/13 01:55:48;;;;;;;;;3.00;0.50;;;;;22.70;32.72;101708.06;5058752;28;45397;-58
2022/05/13 01:58:17;;;;;;;;;0.00;0.00;;;;;22.70;32.65;101706.28;5059349;28;45424;-58
2022/05/13 02:00:44;;;;;;;;;0.75;0.75;;;;;22.68;32.66;101704.63;5058911;28;45332;-58
2022/05/13 02:05:54;;;;;;;;;1.00;1.00;;;;;22.70;32.84;101706.28;5058912;28;45634;-58
2022/05/13 02:08:20;;;;;;;;;0.25;0.25;;;;;22.69;32.57;101703.69;5058790;28;45429;-56
2022/05/13 02:10:46;;;;;;;;;0.00;0.00;;;;;22.69;32.56;101698.41;5058827;28;45338;-58
2022/05/13 02:13:13;;;;;;;;;1.00;1.00;;;;;22.68;32.58;101696.69;5058440;28;45293;-57
2022/05/13 02:15:39;;;;;;;;;0.25;0.25;;;;;22.68;32.58;101702.84;5057929;28;45303;-58
2022/05/13 02:18:05;;;;;;;;;0.75;0.50;;;;;22.68;32.64;101697.56;5058809;28;45418;-58
2022/05/13 02:20:31;;;;;;;;;2.00;0.75;;;;;22.68;32.69;101704.63;5058240;28;46969;-58
2022/05/13 02:22:56;;;;;;;;;0.75;0.75;;;;;22.65;32.69;101702.16;5058369;28;45257;-58
2022/05/13 02:25:21;;;;;;;;;3.00;1.00;;;;;22.65;32.72;101702.16;5074125;28;45273;-58
2022/05/13 02:27:47;;;;;;;;;1.00;1.00;;;;;22.65;32.72;101703.00;5058820;28;45255;-58
2022/05/13 02:30:13;;;;;;;;;2.50;1.00;;;;;22.65;32.83;101712.72;5056951;28;48162;-58
2022/05/13 02:32:38;;;;;;;;;0.75;0.75;;;;;22.65;32.71;101712.72;5058231;28;45238;-58
2022/05/13 02:35:05;;;;;;;;;1.00;1.00;;;;;22.64;32.95;101706.56;5058185;28;45387;-58
2022/05/13 02:37:31;;;;;;;;;0.75;0.75;;;;;22.62;32.84;101708.44;5058296;28;45359;-58
2022/05/13 02:39:56;;;;;;;;;0.25;0.25;;;;;22.63;32.77;101704.03;5057986;28;46367;-58
2022/05/13 02:42:22;;;;;;;;;1.50;1.50;;;;;22.61;33.07;101706.72;5058036;28;45337;-58
2022/05/13 02:44:47;;;;;;;;;1.25;0.75;;;;;22.62;32.96;101703.16;5058362;28;45452;-58
2022/05/13 02:47:12;;;;;;;;;1.00;1.00;;;;;22.63;32.90;101709.31;5058212;28;45320;-58
2022/05/13 02:49:38;;;;;;;;;0.25;0.25;;;;;22.63;32.88;101712.78;5057862;28;46283;-58
2022/05/13 02:52:04;;;;;;;;;1.00;1.00;;;;;22.62;32.97;101715.53;5057793;28;45291;-58
2022/05/13 02:54:29;;;;;;;;;0.50;0.50;;;;;22.62;32.88;101712.88;5056681;28;45455;-58
2022/05/13 02:56:55;;;;;;;;;2.25;0.25;;;;;22.60;32.91;101704.16;5058233;28;45410;-58
2022/05/13 02:59:20;;;;;;;;;0.00;0.00;;;;;22.60;33.00;101706.81;5057764;28;46558;-58
2022/05/13 03:01:45;;;;;;;;;1.00;1.00;;;;;22.61;33.04;101703.25;5057985;28;45307;-58
2022/05/13 03:04:11;;;;;;;;;1.00;1.00;;;;;22.59;32.76;101708.59;5057911;28;45494;-58
2022/05/13 03:06:36;;;;;;;;;1.25;1.00;;;;;22.57;33.01;101710.47;5058031;28;45165;-58
2022/05/13 03:09:02;;;;;;;;;0.75;0.50;;;;;22.58;33.01;101703.38;5057553;28;45976;-58
2022/05/13 03:11:27;;;;;;;;;2.50;1.00;;;;;22.57;32.95;101705.19;5057598;28;45750;-58
2022/05/13 03:13:53;;;;;;;;;1.00;1.00;;;;;22.57;33.14;101704.31;5057390;28;45318;-58
2022/05/13 03:16:23;;;;;;;;;3.25;1.00;;;;;22.56;32.82;101703.47;5058088;28;45235;-58
2022/05/13 03:18:55;;;;;;;;;1.00;1.00;;;;;22.57;33.03;101704.31;5057647;28;45322;-58
2022/05/13 03:21:22;;;;;;;;;1.00;1.00;;;;;22.55;33.21;101702.59;5056664;28;45533;-58
2022/05/13 03:23:48;;;;;;;;;2.00;0.25;;;;;22.55;33.15;101705.25;5057862;28;45472;-58
2022/05/13 03:26:16;;;;;;;;;1.25;1.00;;;;;22.54;33.10;101703.53;5057655;28;45580;-58
2022/05/13 03:28:42;;;;;;;;;1.25;1.25;;;;;22.54;32.90;101700.88;5056149;28;45594;-58
2022/05/13 03:31:08;;;;;;;;;1.00;1.00;;;;;22.52;33.16;101704.53;5057296;28;45327;-58
2022/05/13 03:33:33;;;;;;;;;1.00;1.00;;;;;22.51;33.04;101701.06;5057489;28;45237;-58
2022/05/13 03:35:59;;;;;;;;;1.00;1.00;;;;;22.52;33.18;101697.50;5057419;28;45181;-58
2022/05/13 03:38:25;;;;;;;;;1.00;1.00;;;;;22.52;32.98;101702.78;5056975;28;46187;-58
2022/05/13 03:40:50;;;;;;;;;0.75;0.75;;;;;22.52;33.26;101701.91;5057404;28;45410;-58
2022/05/13 03:43:16;;;;;;;;;1.75;1.75;;;;;22.53;33.17;101700.97;5057146;28;45322;-58
2022/05/13 03:45:42;;;;;;;;;2.00;2.00;;;;;22.53;33.34;101707.13;5057272;28;45327;-58
2022/05/13 03:48:08;;;;;;;;;3.50;2.25;;;;;22.49;33.17;101707.38;5056923;28;46176;-58
2022/05/13 03:50:36;;;;;;;;;2.00;2.00;;;;;22.49;33.28;101702.91;5057036;28;45359;-58
2022/05/13 03:53:02;;;;;;;;;1.00;1.00;;;;;22.49;33.18;101704.72;5057043;28;45300;-57
2022/05/13 03:55:28;;;;;;;;;4.25;2.50;;;;;22.51;33.39;101705.47;5057099;28;45585;-58
2022/05/13 03:57:54;;;;;;;;;3.25;3.00;;;;;22.45;33.25;101711.91;5056806;28;46360;-56
2022/05/13 04:00:20;;;;;;;;;3.75;2.25;;;;;22.34;33.21;101708.91;5057230;28;45304;-57
2022/05/13 04:02:46;;;;;;;;;3.75;3.25;;;;;22.18;33.47;101714.97;5056813;28;45394;-58
2022/05/13 04:10:40;;;;;;;;;3.75;2.50;;;;;21.80;33.81;101717.63;5056584;28;45229;-57
2022/05/13 04:16:04;;;;;;;;;4.00;3.25;;;;;21.60;33.97;101711.50;5057160;28;45376;-56
2022/05/13 04:18:51;;;;;;;;;3.75;2.00;;;;;21.51;34.13;101709.28;5056850;28;46110;-57
2022/05/13 04:21:24;;;;;;;;;1.00;1.00;;;;;21.45;34.10;101706.91;5056467;28;45296;-57
2022/05/13 04:23:52;;;;;;;;;2.75;2.75;;;;;21.39;34.55;101710.66;5057082;28;45493;-57
2022/05/13 04:26:17;;;;;;;;;2.00;2.00;;;;;21.36;34.60;101721.38;5072353;28;45229;-58
2022/05/13 04:28:45;;;;;;;;;2.00;2.00;;;;;21.27;34.58;101713.88;5056491;28;45401;-58
2022/05/13 04:31:12;;;;;;;;;2.75;2.75;;;;;21.20;34.56;101715.06;5056284;28;45986;-57
2022/05/13 04:33:38;;;;;;;;;2.75;1.25;;;;;21.12;34.82;101725.94;5056588;28;45333;-57
2022/05/13 04:36:05;;;;;;;;;3.25;2.00;;;;;21.05;34.96;101724.50;5056491;28;45564;-56
2022/05/13 04:38:31;;;;;;;;;2.00;2.00;;;;;20.99;35.26;101717.72;5056389;28;46292;-56
2022/05/13 04:40:56;;;;;;;;;3.00;2.00;;;;;20.94;35.36;101731.09;5059998;28;45193;-57
2022/05/13 04:43:21;;;;;;;;;4.00;0.00;;;;;20.89;35.12;101725.16;5060435;28;45303;-57
2022/05/13 04:45:47;;;;;;;;;3.75;3.00;;;;;20.79;35.60;101716.81;5060171;28;45521;-57
2022/05/13 04:48:15;;;;;;;;;3.75;2.00;;;;;20.83;35.86;101733.31;5059924;28;46402;-57
2022/05/13 04:50:42;;;;;;;;;3.00;2.00;;;;;20.79;35.72;101727.34;5059797;28;45398;-57
2022/05/13 04:53:09;;;;;;;;;1.75;1.75;;;;;20.78;35.64;101722.97;5060038;28;45288;-57
2022/05/13 04:55:35;;;;;;;;;1.75;1.50;;;;;20.74;36.16;101728.41;5059972;28;45517;-56
2022/05/13 04:58:01;;;;;;;;;1.00;1.00;;;;;20.75;35.58;101735.44;5059613;28;46220;-56
2022/05/13 05:00:27;;;;;;;;;5.50;3.25;;;;;20.76;35.76;101739.78;5059677;28;45421;-57
2022/05/13 05:02:52;;;;;;;;;3.00;3.00;;;;;20.72;36.10;101730.25;5058891;28;45339;-57
2022/05/13 05:05:18;;;;;;;;;4.75;2.00;;;;;20.68;36.29;101743.53;5059873;28;45702;-56
2022/05/13 05:07:43;;;;;;;;;3.25;2.00;;;;;20.67;36.79;101747.09;5059373;28;46167;-56
2022/05/13 05:10:10;;;;;;;;;3.00;3.00;;;;;20.65;36.92;101751.59;5059413;28;45366;-56
2022/05/13 05:12:36;;;;;;;;;5.00;2.00;;;;;20.65;36.83;101748.09;5059578;28;45449;-56
2022/05/13 05:15:02;;;;;;;;;2.50;2.00;;;;;20.62;36.65;101757.00;5059381;28;45267;-56
2022/05/13 05:17:28;;;;;;;;;5.75;2.00;;;;;20.58;37.08;101750.13;5059138;28;47047;-56
2022/05/13 05:19:53;;;;;;;;;3.50;3.00;;;;;20.59;37.25;101754.47;5059658;28;45459;-56
2022/05/13 05:22:18;;;;;;;;;3.50;2.00;;;;;20.59;36.94;101761.53;5059285;28;45470;-57
2022/05/13 05:24:45;;;;;;;;;2.25;2.25;;;;;20.54;37.04;101759.94;5059544;28;45457;-56
2022/05/13 05:27:11;;;;;;;;;1.00;0.00;;;;;20.54;37.64;101759.09;5057889;28;45236;-56
2022/05/13 05:29:37;;;;;;;;;3.25;2.00;;;;;20.54;37.30;101762.56;5058362;28;45307;-57
2022/05/13 05:32:03;;;;;;;;;5.00;2.00;;;;;20.55;37.80;101763.44;5057962;28;45337;-56
2022/05/13 05:34:28;;;;;;;;;3.50;1.00;;;;;20.51;37.70;101770.56;5059419;28;45346;-56
2022/05/13 05:36:53;;;;;;;;;5.75;2.75;;;;;20.50;37.86;101775.91;5059318;28;45916;-56
2022/05/13 05:39:19;;;;;;;;;2.75;2.75;;;;;20.45;37.72;101770.84;5059015;28;45323;-56
2022/05/13 05:41:44;;;;;;;;;2.00;2.00;;;;;20.46;37.74;101782.22;5059090;28;45620;-56
2022/05/13 05:44:10;;;;;;;;;1.50;1.00;;;;;20.42;37.67;101773.59;5058099;28;45459;-56
2022/05/13 05:46:35;;;;;;;;;2.00;1.00;;;;;20.45;37.46;101776.09;5058819;28;46270;-57
2022/05/13 05:49:00;;;;;;;;;4.50;2.00;;;;;20.44;37.94;101786.72;5058941;28;45427;-54
2022/05/13 05:51:26;;;;;;;;;2.00;2.00;;;;;20.39;37.48;101786.91;5056899;28;45304;-54
2022/05/13 05:59:19;;;;;;;;;3.00;2.00;;;;;20.43;37.84;101792.88;5058649;28;45650;-57
2022/05/13 06:01:45;;;;;;;;;1.75;1.75;;;;;20.37;37.45;101784.31;5058795;28;45699;-57
2022/05/13 06:04:11;;;;;;;;;3.50;2.00;;;;;20.46;37.82;101798.00;5058911;28;45581;-56
2022/05/13 06:06:36;;;;;;;;;2.00;2.00;;;;;20.47;37.52;101805.00;5058552;28;45382;-56
2022/05/13 06:09:02;;;;;;;;;1.50;1.25;;;;;20.47;38.05;101800.59;5058483;28;45386;-55
2022/05/13 06:11:28;;;;;;;;;2.75;2.50;;;;;20.47;38.14;101811.13;5058956;28;45449;-56
2022/05/13 06:13:55;;;;;;;;;2.25;1.25;;;;;20.46;37.46;101804.16;5058696;28;45621;-57
2022/05/13 06:16:22;;;;;;;;;3.00;3.00;;;;;20.45;37.67;101810.34;5058343;28;46552;-57
2022/05/13 06:18:48;;;;;;;;;3.00;2.25;;;;;20.45;37.76;101812.13;5058484;28;45795;-57
2022/05/13 06:21:14;;;;;;;;;1.75;1.50;;;;;20.48;37.86;101811.97;5058572;28;45231;-53
2022/05/13 06:23:39;;;;;;;;;3.50;2.50;;;;;20.48;37.91;101817.25;5058504;28;45203;-55
2022/05/13 06:26:05;;;;;;;;;3.50;2.00;;;;;20.47;37.94;101821.66;5057247;28;45390;-58
2022/05/13 06:28:31;;;;;;;;;3.50;2.25;;;;;20.48;38.13;101820.75;5058485;28;45346;-56
2022/05/13 06:30:56;;;;;;;;;2.00;2.00;;;;;20.49;37.70;101818.97;5058633;28;45418;-57
2022/05/13 06:33:22;;;;;;;;;6.75;3.00;;;;;20.47;37.67;101826.06;5058507;28;45443;-56
2022/05/13 06:35:48;;;;;;;;;4.75;3.00;;;;;20.47;37.90;101831.34;5057969;28;46994;-56
2022/05/13 06:38:20;;;;;;;;;3.00;2.00;;;;;20.44;38.08;101823.56;5058156;28;45332;-57
2022/05/13 06:40:48;;;;;;;;;3.00;2.25;;;;;20.43;37.72;101822.69;5057665;28;45403;-56
2022/05/13 06:43:15;;;;;;;;;4.00;3.25;;;;;20.43;38.19;101830.59;5074087;28;45605;-57
2022/05/13 06:45:41;;;;;;;;;5.75;3.00;;;;;20.42;38.21;101826.25;5056731;28;48462;-56
2022/05/13 06:48:07;;;;;;;;;4.50;2.00;;;;;20.44;38.26;101832.31;5057953;28;45791;-56
2022/05/13 06:50:33;;;;;;;;;1.75;1.75;;;;;20.47;37.83;101836.59;5058007;28;45247;-56
2022/05/13 06:52:58;;;;;;;;;2.00;2.00;;;;;20.47;37.35;101836.59;5058415;28;45248;-56
2022/05/13 06:55:24;;;;;;;;;4.50;2.00;;;;;20.48;37.66;101840.94;5057623;28;46990;-56
2022/05/13 06:57:49;;;;;;;;;3.25;2.50;;;;;20.48;37.23;101839.19;5057708;28;45438;-56
2022/05/13 07:00:16;;;;;;;;;1.50;1.00;;;;;20.48;37.39;101843.59;5057898;28;45245;-56
2022/05/13 07:02:41;;;;;;;;;2.00;2.00;;;;;20.49;37.32;101845.31;5057775;28;45347;-56
2022/05/13 07:05:09;;;;;;;;;1.00;1.00;;;;;20.49;37.26;101842.66;5057674;28;45920;-57
2022/05/13 07:07:35;;;;;;;;;2.25;2.00;;;;;20.52;37.43;101846.03;5057575;28;45399;-57
2022/05/13 07:10:00;;;;;;;;;3.00;1.00;;;;;20.52;36.82;101843.41;5058087;28;45322;-56
2022/05/13 07:12:26;;;;;;;;;6.25;2.25;;;;;20.54;37.20;101844.19;5057811;28;45551;-56
2022/05/13 07:14:53;;;;;;;;;2.50;2.50;;;;;20.55;36.63;101848.56;5057226;28;46323;-56
2022/05/13 07:17:19;;;;;;;;;1.00;1.00;;;;;20.58;36.93;101844.94;5057538;28;45247;-57
2022/05/13 07:19:44;;;;;;;;;1.75;1.00;;;;;20.60;36.69;101848.38;5057561;28;45169;-55
2022/05/13 07:22:10;;;;;;;;;1.25;1.00;;;;;20.55;36.48;101840.66;5057777;28;45624;-53
2022/05/13 07:24:35;;;;;;;;;1.25;0.00;;;;;20.63;36.79;101848.25;5056138;28;45389;-55
2022/05/13 07:27:00;;;;;;;;;2.00;1.50;;;;;20.67;36.46;101857.72;5057367;28;47778;-52
2022/05/13 07:29:26;;;;;;;;;2.50;1.00;;;;;20.69;36.31;101849.78;5057433;28;45319;-54
2022/05/13 07:31:51;;;;;;;;;1.00;0.00;;;;;20.72;36.03;101846.16;5039589;28;45395;-55
2022/05/13 07:34:17;;;;;;;;;2.50;1.00;;;;;20.77;35.92;101844.25;5057052;28;46376;-54
2022/05/13 07:36:43;;;;;;;;;1.00;1.00;;;;;20.77;35.97;101839.81;5055865;28;45762;-53
2022/05/13 07:41:53;;;;;;;;;2.00;1.75;;;;;20.79;36.01;101852.94;5057337;28;45349;-55
2022/05/13 07:44:18;;;;;;;;;2.00;2.00;;;;;20.81;36.09;101848.47;5056906;28;46181;-49
2022/05/13 07:46:44;;;;;;;;;1.50;1.00;;;;;20.82;36.08;101852.81;5056995;28;45436;-52
2022/05/13 07:49:09;;;;;;;;;1.50;1.25;;;;;20.86;35.81;101854.41;5057041;28;45640;-53
2022/05/13 07:51:35;;;;;;;;;1.00;1.00;;;;;20.89;35.42;101851.63;5057323;28;45286;-52
2022/05/13 07:54:00;;;;;;;;;0.50;0.50;;;;;20.90;35.08;101850.72;5054354;28;46269;-54
2022/05/13 07:56:26;;;;;;;;;1.00;1.00;;;;;20.96;35.29;101852.25;5056357;28;48389;-48
2022/05/13 07:58:51;;;;;;;;;0.75;0.75;;;;;20.98;34.86;101856.56;5056891;28;45329;-51
2022/05/13 08:01:17;;;;;;;;;1.00;1.00;;;;;21.02;34.87;101862.56;5056784;28;45330;-53
2022/05/13 08:03:44;;;;;;;;;2.00;1.00;;;;;21.08;35.06;101854.38;5054762;28;45464;-52
2022/05/13 08:06:12;;;;;;;;;1.00;1.00;;;;;21.15;34.90;101849.72;5056717;28;45304;-50
2022/05/13 08:08:40;;;;;;;;;2.00;0.50;;;;;21.20;34.94;101853.03;5056575;28;45831;-54
2022/05/13 08:11:10;;;;;;;;;1.75;0.50;;;;;21.25;35.03;101843.13;5056632;28;45402;-53
2022/05/13 08:13:36;;;;;;;;;1.00;1.00;;;;;21.30;34.64;101854.34;5055524;28;46253;-54
2022/05/13 08:16:06;;;;;;;;;1.25;1.00;;;;;21.36;34.47;101852.34;5063040;28;45736;-53
2022/05/13 08:18:32;;;;;;;;;3.25;1.00;;;;;21.39;34.89;101846.97;5068860;27;45458;-52
2022/05/13 08:20:57;;;;;;;;;2.00;1.50;;;;;21.42;34.53;101846.84;5056721;28;45175;-54
2022/05/13 08:23:23;;;;;;;;;2.25;1.00;;;;;21.46;34.49;101848.41;5054587;28;47404;-54
2022/05/13 08:25:49;;;;;;;;;1.00;1.00;;;;;21.51;34.73;101851.69;5056050;28;45379;-56
2022/05/13 08:28:17;;;;;;;;;3.00;1.00;;;;;21.54;34.61;101854.22;5063342;27;45800;-56
2022/05/13 08:30:43;;;;;;;;;1.00;1.00;;;;;21.58;34.34;101847.03;5069851;28;45340;-55
2022/05/13 08:33:08;;;;;;;;;2.00;2.00;;;;;21.62;34.70;101853.88;5076236;27;46289;-53
2022/05/13 08:35:40;;;;;;;;;0.50;0.50;;;;;21.65;34.28;101847.66;5076411;27;45326;-55
2022/05/13 08:38:06;;;;;;;;;1.00;1.00;;;;;21.67;34.53;101845.78;5066394;27;45572;-53
2022/05/13 08:40:53;;;;;;;;;1.75;1.75;;;;;21.69;34.41;101852.72;5056645;28;45324;-55
2022/05/13 08:44:04;;;;;;;;;2.25;1.50;;;;;21.72;33.98;101851.72;5054645;28;46220;-55
2022/05/13 08:46:40;;;;;;;;;4.50;2.00;;;;;21.74;34.31;101857.78;4994070;28;45741;-55
2022/05/13 08:49:47;;;;;;;;;5.00;1.50;;;;;21.75;33.97;101854.22;5050088;28;45736;-55
2022/05/13 08:55:35;;;;;;;;;2.00;2.00;;;;;21.81;33.95;101853.09;5055658;28;45365;-54
2022/05/13 08:58:04;;;;;;;;;2.00;2.00;;;;;21.83;34.07;101852.09;5055681;28;45386;-55
2022/05/13 09:00:43;;;;;;;;;2.00;2.00;;;;;21.86;34.07;101853.72;5056016;28;45312;-54
2022/05/13 09:03:26;;;;;;;;;4.00;3.00;;;;;21.89;33.77;101851.81;5056038;28;45414;-55
2022/05/13 09:06:06;;;;;;;;;2.00;2.00;;;;;21.92;33.98;101856.94;5055238;28;46193;-56
2022/05/13 09:08:33;;;;;;;;;2.50;1.25;;;;;21.95;33.84;101858.59;5055695;28;45759;-56
2022/05/13 09:11:08;;;;;;;;;4.25;1.00;;;;;21.95;33.65;101855.09;5060589;28;45454;-55
2022/05/13 09:13:57;;;;;;;;;2.25;1.75;;;;;21.96;33.86;101851.53;5076440;28;45314;-56
2022/05/13 09:16:39;;;;;;;;;3.00;1.50;;;;;21.98;33.78;101855.81;5075479;27;45389;-56
2022/05/13 09:19:05;;;;;;;;;2.50;1.50;;;;;21.99;33.98;101851.41;5076161;27;45427;-54
2022/05/13 09:21:30;;;;;;;;;2.00;2.00;;;;;22.01;33.77;101855.69;5075948;28;45357;-57
2022/05/13 09:23:56;;;;;;;;;3.25;1.75;;;;;22.04;33.86;101849.41;5075875;27;45666;-55
2022/05/13 09:26:24;;;;;;;;;3.50;1.25;;;;;22.03;33.79;101845.03;5078380;27;45855;-56
2022/05/13 09:29:12;;;;;;;;;3.00;2.00;;;;;22.05;34.00;101851.13;5079236;27;45895;-56
2022/05/13 09:31:42;;;;;;;;;2.00;1.50;;;;;22.05;33.76;101856.41;5079879;27;45434;-56
2022/05/13 09:34:26;;;;;;;;;2.75;2.00;;;;;22.06;33.45;101852.84;5080014;27;45343;-56
2022/05/13 09:36:51;;;;;;;;;1.50;1.50;;;;;22.04;33.25;101849.41;5079190;28;46371;-56
2022/05/13 09:39:25;;;;;;;;;2.50;1.00;;;;;22.04;33.66;101850.28;5079278;27;45336;-55
2022/05/13 09:41:52;;;;;;;;;3.25;2.00;;;;;22.04;33.60;101849.41;5079426;27;45620;-54
2022/05/13 09:44:25;;;;;;;;;3.00;1.50;;;;;22.05;33.61;101844.03;5079610;27;45379;-56
2022/05/13 09:47:10;;;;;;;;;3.75;1.75;;;;;22.09;33.73;101855.34;5079108;27;46904;-56
2022/05/13 09:49:40;;;;;;;;;5.75;2.00;;;;;22.03;33.40;101850.31;5079454;27;45266;-56
2022/05/13 09:52:11;;;;;;;;;1.75;1.75;;;;;22.09;33.70;101852.69;5078692;27;45390;-56
2022/05/13 09:54:41;;;;;;;;;1.25;1.25;;;;;22.12;33.44;101849.06;5079637;27;45749;-56
2022/05/13 09:57:30;;;;;;;;;1.25;1.25;;;;;22.13;33.24;101854.25;5079213;27;45402;-56
2022/05/13 10:00:19;;;;;;;;;1.75;1.00;;;;;22.13;33.27;101854.25;5079240;28;45771;-56
2022/05/13 10:02:47;;;;;;;;;1.00;1.00;;;;;22.12;33.51;101843.78;5079269;27;45348;-56
2022/05/13 10:05:23;;;;;;;;;3.00;2.00;;;;;22.15;33.49;101841.00;5079221;27;45496;-56
2022/05/13 10:07:51;;;;;;;;;2.00;2.00;;;;;22.13;33.27;101846.34;5078879;27;45432;-56
2022/05/13 10:16:02;;;;;;;;;2.00;2.00;;;;;22.13;33.08;101830.50;5079048;28;45267;-56
2022/05/13 10:18:30;;;;;;;;;2.75;1.75;;;;;22.17;33.24;101841.75;5078679;27;45528;-56
2022/05/13 10:21:06;;;;;;;;;1.25;1.25;;;;;22.16;32.98;101833.00;5078723;27;45873;-56
2022/05/13 10:23:37;;;;;;;;;1.00;1.00;;;;;22.18;33.11;101825.88;5077465;28;45262;-56
2022/05/13 10:26:15;;;;;;;;;1.00;1.00;;;;;22.18;32.92;101831.16;5078880;27;45483;-57
2022/05/13 10:29:07;;;;;;;;;3.00;0.75;;;;;22.20;33.36;101831.94;5078780;28;45352;-56
2022/05/13 10:31:41;;;;;;;;;2.75;2.75;;;;;22.21;33.43;101824.84;5076546;28;45363;-56
2022/05/13 10:34:34;;;;;;;;;3.00;1.00;;;;;22.23;33.42;101828.28;5078413;27;45283;-56
2022/05/13 10:37:10;;;;;;;;;0.25;0.25;;;;;22.23;32.94;101823.84;5078058;27;45464;-56
2022/05/13 10:39:43;;;;;;;;;3.00;0.50;;;;;22.24;33.09;101825.56;5078425;27;45410;-56
2022/05/13 10:42:19;;;;;;;;;1.00;1.00;;;;;22.24;33.24;101820.28;5077419;28;45843;-56
2022/05/13 10:45:01;;;;;;;;;1.00;1.00;;;;;22.26;33.04;101825.50;5078230;27;45250;-56
2022/05/13 10:47:34;;;;;;;;;1.75;1.00;;;;;22.28;32.85;101828.06;5078442;27;45448;-56
2022/05/13 10:49:59;;;;;;;;;0.75;0.75;;;;;22.28;32.98;101822.78;5078125;27;46080;-56
2022/05/13 10:52:44;;;;;;;;;0.25;0.25;;;;;22.21;32.95;101809.84;5078206;27;45519;-56
2022/05/13 10:55:29;;;;;;;;;6.00;1.00;;;;;22.30;32.57;101815.66;5078464;27;45275;-54
2022/05/13 10:58:16;;;;;;;;;3.75;1.00;;;;;22.30;32.70;101815.66;5078448;27;45335;-55
2022/05/13 11:00:55;;;;;;;;;2.25;2.25;;;;;22.29;32.46;101813.94;5078358;28;46998;-55
2022/05/13 11:03:27;;;;;;;;;2.00;2.00;;;;;22.29;32.26;101809.50;5078086;28;45362;-55
2022/05/13 11:06:14;;;;;;;;;1.00;1.00;;;;;22.30;32.28;101810.38;5078337;27;45266;-56
2022/05/13 11:08:50;;;;;;;;;2.25;1.75;;;;;22.28;32.50;101805.16;5078686;27;45221;-56
2022/05/13 11:11:33;;;;;;;;;2.00;2.00;;;;;22.29;32.43;101806.03;5077829;27;47155;-56
2022/05/13 11:14:24;;;;;;;;;1.75;1.75;;;;;22.28;32.66;101805.16;5077922;27;45531;-56
2022/05/13 11:17:11;;;;;;;;;3.75;2.00;;;;;22.29;32.60;101806.03;5077987;28;45345;-55
2022/05/13 11:19:47;;;;;;;;;3.00;2.25;;;;;22.31;32.22;101809.44;5077973;27;45239;-54
2022/05/13 11:22:35;;;;;;;;;3.75;3.00;;;;;22.30;32.33;101805.09;5078080;27;46683;-55
2022/05/13 11:25:55;;;;;;;;;4.00;1.25;;;;;22.31;32.34;101799.72;5077743;27;45434;-55
2022/05/13 11:29:02;;;;;;;;;2.25;2.25;;;;;22.30;32.57;101791.88;5077863;28;45279;-56
2022/05/13 11:31:44;;;;;;;;;5.00;3.00;;;;;22.33;32.51;101797.00;4978952;28;45414;-55
2022/05/13 11:34:28;;;;;;;;;2.75;2.75;;;;;22.33;32.60;101799.66;5087481;27;46905;-55
2022/05/13 11:37:02;;;;;;;;;3.25;2.00;;;;;22.33;32.27;101792.59;5076963;27;45835;-56
2022/05/13 11:39:44;;;;;;;;;3.25;1.75;;;;;22.34;32.40;101794.31;5077493;27;45302;-56
2022/05/13 11:42:34;;;;;;;;;7.00;2.75;;;;;22.35;32.44;101795.16;5077783;27;45497;-56
2022/05/13 11:45:30;;;;;;;;;3.00;3.00;;;;;22.37;32.21;101788.00;5077162;28;45387;-55
2022/05/13 11:48:27;;;;;;;;;2.75;2.75;;;;;22.37;32.43;101790.66;5077077;27;45859;-56
2022/05/13 11:51:02;;;;;;;;;2.00;2.00;;;;;22.39;32.32;101794.09;5043593;27;45334;-55
2022/05/13 11:54:01;;;;;;;;;2.75;2.75;;;;;22.39;32.41;101780.88;5077530;27;45263;-56
2022/05/13 11:56:26;;;;;;;;;3.00;2.00;;;;;22.40;32.34;101779.94;5077016;28;45348;-56
2022/05/13 11:59:19;;;;;;;;;2.00;2.00;;;;;22.42;32.43;101779.91;5077063;28;45356;-55
2022/05/13 12:01:44;;;;;;;;;1.75;1.75;;;;;22.42;32.11;101785.19;5077442;28;45270;-58
2022/05/13 12:04:13;;;;;;;;;2.33;2.00;;;;;22.43;32.37;101776.31;5077325;28;45482;-52
2022/05/13 12:06:47;;;;;;;;;3.00;2.00;;;;;22.43;32.53;101777.19;5076738;28;47315;-56
2022/05/13 12:09:13;;;;;;;;;2.25;2.00;;;;;22.45;32.66;101769.19;5077329;28;45298;-54